Time;durP1;ratioP1;P1;durP2;ratioP2;P2;SDS_P1;SDS_P2;PMS_P1;PMS_P2;Temp;Humidity;BMP_temperature;BMP_pressure;BME280_temperature;BME280_humidity;BME280_pressure;Samples;Min_cycle;Max_cycle;Signal;HPM_P1;HPM_P2
2022/03/25 00:01:31;;;;;;;58.70;31.97;;;6.30;99.90;;;;;;4983047;28;38362;-77
2022/03/25 00:03:57;;;;;;;68.43;32.53;;;6.20;99.90;;;;;;4970016;28;39571;-77
2022/03/25 00:06:26;;;;;;;63.00;32.67;;;6.20;99.90;;;;;;4982130;28;37624;-77
2022/03/25 00:08:52;;;;;;;59.87;32.70;;;6.20;99.90;;;;;;4978282;28;38335;-77
2022/03/25 00:11:19;;;;;;;68.57;34.30;;;6.10;99.90;;;;;;4985255;28;37912;-77
2022/03/25 00:13:45;;;;;;;59.73;32.37;;;6.10;99.90;;;;;;4978864;28;39516;-77
2022/03/25 00:16:11;;;;;;;59.50;34.03;;;6.10;99.90;;;;;;4972954;28;38721;-77
2022/03/25 00:18:38;;;;;;;60.70;33.07;;;6.10;99.90;;;;;;4982429;28;38522;-76
2022/03/25 00:21:05;;;;;;;59.47;33.40;;;6.10;99.90;;;;;;4976820;28;37421;-77
2022/03/25 00:23:31;;;;;;;57.17;31.97;;;6.20;99.90;;;;;;4976727;28;39959;-77
2022/03/25 00:25:57;;;;;;;59.77;33.20;;;6.20;99.90;;;;;;4980139;28;37796;-77
2022/03/25 00:28:23;;;;;;;59.13;33.27;;;6.20;99.90;;;;;;4983963;28;39282;-77
2022/03/25 00:30:50;;;;;;;56.40;32.10;;;6.30;99.90;;;;;;4980919;28;36522;-77
2022/03/25 00:33:16;;;;;;;56.17;32.07;;;6.20;99.90;;;;;;4968154;28;39592;-78
2022/03/25 00:35:44;;;;;;;56.53;32.07;;;6.20;99.90;;;;;;4983186;28;38702;-77
2022/03/25 00:38:13;;;;;;;57.20;32.47;;;6.20;99.90;;;;;;4978960;28;38923;-77
2022/03/25 00:40:39;;;;;;;60.70;33.57;;;6.20;99.90;;;;;;4986072;28;37760;-77
2022/03/25 00:43:06;;;;;;;57.10;32.23;;;6.10;99.90;;;;;;4985774;28;40815;-77
2022/03/25 00:45:33;;;;;;;50.47;29.60;;;6.10;99.90;;;;;;4984243;28;38590;-77
2022/03/25 00:47:59;;;;;;;56.03;31.37;;;6.00;99.90;;;;;;4966522;28;39579;-77
2022/03/25 00:50:26;;;;;;;54.63;31.40;;;6.00;99.90;;;;;;4977767;28;38122;-77
2022/03/25 00:52:52;;;;;;;56.67;30.80;;;5.90;99.90;;;;;;4978749;28;39205;-77
2022/03/25 00:55:22;;;;;;;56.50;31.07;;;5.80;99.90;;;;;;4978749;28;38523;-77
2022/03/25 00:57:48;;;;;;;54.80;30.63;;;5.80;99.90;;;;;;4968899;28;38602;-77
2022/03/25 01:00:20;;;;;;;55.37;30.07;;;5.80;99.90;;;;;;4958806;28;37655;-77
2022/03/25 01:02:49;;;;;;;55.28;30.77;;;5.70;99.90;;;;;;4978739;28;39810;-77
2022/03/25 01:05:17;;;;;;;56.00;32.73;;;5.60;99.90;;;;;;4957334;28;37183;-77
2022/03/25 01:07:44;;;;;;;49.83;28.90;;;5.50;99.90;;;;;;4964865;28;37453;-77
2022/03/25 01:10:11;;;;;;;58.10;30.67;;;5.50;99.90;;;;;;4955102;28;36465;-77
2022/03/25 01:12:38;;;;;;;54.33;30.40;;;5.50;99.90;;;;;;4959612;28;40171;-77
2022/03/25 01:15:08;;;;;;;56.20;30.33;;;5.50;99.90;;;;;;4961158;28;37828;-76
2022/03/25 01:17:34;;;;;;;54.40;28.83;;;5.40;99.90;;;;;;4961815;28;37777;-77
2022/03/25 01:20:00;;;;;;;56.00;31.47;;;5.40;99.90;;;;;;4964130;28;36317;-77
2022/03/25 01:22:26;;;;;;;59.83;31.23;;;5.30;99.90;;;;;;4961589;28;40277;-76
2022/03/25 01:24:52;;;;;;;54.50;30.83;;;5.30;99.90;;;;;;4978173;28;37415;-76
2022/03/25 01:27:19;;;;;;;47.37;29.63;;;5.30;99.90;;;;;;4952509;28;37072;-77
2022/03/25 01:29:45;;;;;;;50.40;28.97;;;5.20;99.90;;;;;;4956005;28;36319;-77
2022/03/25 01:32:12;;;;;;;52.40;30.47;;;5.20;99.90;;;;;;4966007;28;39230;-77
2022/03/25 01:34:38;;;;;;;55.70;31.70;;;5.10;99.90;;;;;;4968046;28;38628;-77
2022/03/25 01:37:05;;;;;;;55.63;31.13;;;5.20;99.90;;;;;;4971753;28;36928;-77
2022/03/25 01:39:34;;;;;;;61.90;32.60;;;5.20;99.90;;;;;;4970455;28;38955;-77
2022/03/25 01:42:01;;;;;;;62.03;33.57;;;5.20;99.90;;;;;;4968416;28;39348;-77
2022/03/25 01:44:29;;;;;;;54.50;31.63;;;5.20;99.90;;;;;;4962989;28;48877;-77
2022/03/25 01:46:57;;;;;;;65.03;33.07;;;5.20;99.90;;;;;;4969475;28;39015;-77
2022/03/25 01:49:23;;;;;;;59.07;33.07;;;5.10;99.90;;;;;;4964356;28;37926;-76
2022/03/25 01:51:53;;;;;;;57.50;34.20;;;5.10;99.90;;;;;;4967814;28;37574;-77
2022/03/25 01:54:27;;;;;;;57.73;32.40;;;5.10;99.90;;;;;;4970719;28;38079;-77
2022/03/25 01:57:03;;;;;;;58.30;31.80;;;5.10;99.90;;;;;;4966240;28;38208;-77
2022/03/25 01:59:31;;;;;;;53.67;30.70;;;5.10;99.90;;;;;;4960762;28;48899;-77
2022/03/25 02:01:58;;;;;;;58.83;31.67;;;5.10;99.90;;;;;;4976826;28;37724;-78
2022/03/25 02:04:25;;;;;;;60.33;34.00;;;5.10;99.90;;;;;;4961648;28;38462;-77
2022/03/25 02:06:52;;;;;;;63.17;32.50;;;5.10;99.90;;;;;;4963358;28;38689;-77
2022/03/25 02:09:20;;;;;;;64.10;33.90;;;5.10;99.90;;;;;;4974156;28;38873;-77
2022/03/25 02:11:46;;;;;;;58.80;34.27;;;5.20;99.90;;;;;;4963902;28;38779;-77
2022/03/25 02:14:16;;;;;;;59.30;33.80;;;5.20;99.90;;;;;;4977964;28;39415;-76
2022/03/25 02:16:49;;;;;;;60.57;34.57;;;5.20;99.90;;;;;;4964007;28;37924;-77
2022/03/25 02:19:18;;;;;;;59.17;32.97;;;5.20;99.90;;;;;;4959904;28;37939;-77
2022/03/25 02:21:49;;;;;;;61.37;34.13;;;5.10;99.90;;;;;;4957513;28;39033;-77
2022/03/25 02:24:15;;;;;;;62.73;35.13;;;5.10;99.90;;;;;;4964742;28;39797;-77
2022/03/25 02:26:43;;;;;;;66.63;35.77;;;5.00;99.90;;;;;;4977691;28;39014;-76
2022/03/25 02:29:12;;;;;;;61.73;35.17;;;5.00;99.90;;;;;;4961666;28;38160;-76
2022/03/25 02:31:38;;;;;;;65.93;36.27;;;5.00;99.90;;;;;;4957461;28;39046;-77
2022/03/25 02:34:06;;;;;;;65.87;34.43;;;5.00;99.90;;;;;;4964670;28;38086;-76
2022/03/25 02:36:43;;;;;;;65.93;36.43;;;5.00;99.90;;;;;;4963511;28;38877;-77
2022/03/25 02:39:12;;;;;;;65.77;36.83;;;5.00;99.90;;;;;;4962787;28;37441;-76
2022/03/25 02:41:39;;;;;;;70.10;38.93;;;5.00;99.90;;;;;;4976493;28;39344;-76
2022/03/25 02:44:06;;;;;;;68.60;36.93;;;5.00;99.90;;;;;;4963427;28;38829;-77
2022/03/25 02:46:32;;;;;;;69.47;39.33;;;4.90;99.90;;;;;;4965855;28;39010;-76
2022/03/25 02:48:59;;;;;;;68.90;39.90;;;4.80;99.90;;;;;;4964512;28;37155;-76
2022/03/25 02:51:25;;;;;;;68.20;37.43;;;4.90;99.90;;;;;;4962721;28;39551;-76
2022/03/25 02:53:51;;;;;;;68.80;38.83;;;4.80;99.90;;;;;;4968640;28;39561;-76
2022/03/25 02:56:18;;;;;;;68.50;38.00;;;4.80;99.90;;;;;;4951254;28;38074;-76
2022/03/25 02:58:48;;;;;;;68.57;38.13;;;4.80;99.90;;;;;;4950064;28;38066;-76
2022/03/25 03:01:18;;;;;;;70.57;39.83;;;4.70;99.90;;;;;;4962444;28;40257;-78
2022/03/25 03:03:47;;;;;;;79.20;41.63;;;4.70;99.90;;;;;;4965154;28;39710;-76
2022/03/25 03:06:17;;;;;;;73.63;40.50;;;4.70;99.90;;;;;;4965132;28;37873;-77
2022/03/25 03:08:43;;;;;;;77.10;41.17;;;4.70;99.90;;;;;;4965355;28;36412;-76
2022/03/25 03:11:11;;;;;;;72.37;40.63;;;4.60;99.90;;;;;;4959432;28;38957;-76
2022/03/25 03:13:38;;;;;;;76.23;40.83;;;4.50;99.90;;;;;;4981269;28;38895;-76
2022/03/25 03:16:05;;;;;;;70.10;38.73;;;4.50;99.90;;;;;;4964683;28;39111;-77
2022/03/25 03:18:32;;;;;;;78.30;41.73;;;4.40;99.90;;;;;;4967447;28;37135;-76
2022/03/25 03:20:59;;;;;;;79.97;43.50;;;4.40;99.90;;;;;;4978762;28;39121;-77
2022/03/25 03:23:25;;;;;;;85.90;44.93;;;4.30;99.90;;;;;;4963325;28;37275;-77
2022/03/25 03:25:51;;;;;;;76.77;43.17;;;4.30;99.90;;;;;;4963574;28;38618;-77
2022/03/25 03:28:17;;;;;;;82.50;44.23;;;4.40;99.90;;;;;;4954488;28;38284;-77
2022/03/25 03:30:43;;;;;;;80.33;43.90;;;4.40;99.90;;;;;;4962667;28;38786;-78
2022/03/25 03:33:09;;;;;;;85.30;44.30;;;4.40;99.90;;;;;;4978643;28;39912;-77
2022/03/25 03:35:35;;;;;;;90.10;46.13;;;4.30;99.90;;;;;;4961945;28;38821;-76
2022/03/25 03:38:03;;;;;;;86.83;45.73;;;4.30;99.90;;;;;;4965223;28;37314;-77
2022/03/25 03:40:29;;;;;;;84.30;44.90;;;4.30;99.90;;;;;;4977844;28;40596;-77
2022/03/25 03:42:55;;;;;;;85.30;46.27;;;4.30;99.90;;;;;;4967889;28;37077;-76
2022/03/25 03:45:21;;;;;;;93.33;48.17;;;4.30;99.90;;;;;;4959438;28;37893;-76
2022/03/25 03:47:48;;;;;;;98.37;50.40;;;4.30;99.90;;;;;;4980239;28;38337;-78
2022/03/25 03:50:21;;;;;;;92.10;48.47;;;4.30;99.90;;;;;;4976232;28;40445;-76
2022/03/25 03:52:50;;;;;;;89.37;47.30;;;4.20;99.90;;;;;;4962694;28;39067;-76
2022/03/25 03:55:16;;;;;;;95.23;50.23;;;4.20;99.90;;;;;;4966904;28;38472;-77
2022/03/25 03:57:42;;;;;;;88.23;46.80;;;4.10;99.90;;;;;;4980281;28;37603;-77
2022/03/25 04:00:11;;;;;;;92.53;49.10;;;4.00;99.90;;;;;;4980095;28;38828;-76
2022/03/25 04:02:38;;;;;;;97.43;50.70;;;4.00;99.90;;;;;;4968285;28;40583;-76
2022/03/25 04:05:13;;;;;;;98.67;49.00;;;3.90;99.90;;;;;;4961767;28;38089;-76
2022/03/25 04:07:47;;;;;;;94.47;49.10;;;3.90;99.90;;;;;;4963030;28;38378;-76
2022/03/25 04:10:15;;;;;;;98.77;48.27;;;3.80;99.90;;;;;;4973981;28;39636;-76
2022/03/25 04:12:41;;;;;;;90.50;47.87;;;3.70;99.90;;;;;;4982024;28;38872;-76
2022/03/25 04:15:15;;;;;;;95.33;48.83;;;3.60;99.90;;;;;;4963238;28;36691;-76
2022/03/25 04:17:43;;;;;;;92.27;49.73;;;3.60;99.90;;;;;;4977504;28;37724;-75
2022/03/25 04:20:13;;;;;;;95.73;48.87;;;3.70;99.90;;;;;;4979625;28;39865;-76
2022/03/25 04:22:39;;;;;;;97.90;49.60;;;3.70;99.90;;;;;;4977231;28;38367;-76
2022/03/25 04:25:07;;;;;;;91.70;48.73;;;3.70;99.90;;;;;;4975109;28;38351;-76
2022/03/25 04:27:44;;;;;;;100.87;51.50;;;3.80;99.90;;;;;;4977288;28;36249;-76
2022/03/25 04:30:10;;;;;;;100.40;51.20;;;3.80;99.90;;;;;;4975794;28;39047;-76
2022/03/25 04:32:36;;;;;;;101.63;53.10;;;3.70;99.90;;;;;;4985171;28;38388;-76
2022/03/25 04:35:02;;;;;;;97.97;50.80;;;3.70;99.90;;;;;;4977842;28;38436;-76
2022/03/25 04:37:28;;;;;;;114.30;54.77;;;3.70;99.90;;;;;;4967718;28;38834;-76
2022/03/25 04:39:54;;;;;;;106.07;53.83;;;3.60;99.90;;;;;;4978935;28;39400;-76
2022/03/25 04:42:20;;;;;;;106.80;54.10;;;3.60;99.90;;;;;;4979014;28;39187;-76
2022/03/25 04:44:46;;;;;;;102.00;53.10;;;3.60;99.90;;;;;;4982090;28;38337;-76
2022/03/25 04:47:13;;;;;;;106.70;54.57;;;3.60;99.90;;;;;;4971967;28;38105;-76
2022/03/25 04:49:42;;;;;;;106.17;53.27;;;3.50;99.90;;;;;;4980478;28;39850;-76
2022/03/25 04:52:08;;;;;;;100.77;52.80;;;3.50;99.90;;;;;;4960482;28;39090;-76
2022/03/25 04:54:34;;;;;;;97.13;53.17;;;3.50;99.90;;;;;;4978997;28;38389;-76
2022/03/25 04:57:00;;;;;;;108.30;58.00;;;3.50;99.90;;;;;;4980887;28;37512;-73
2022/03/25 04:59:26;;;;;;;118.77;58.23;;;3.50;99.90;;;;;;4981234;28;47891;-74
2022/03/25 05:01:53;;;;;;;114.20;58.13;;;3.60;99.90;;;;;;4979321;28;38349;-76
2022/03/25 05:04:19;;;;;;;118.97;58.50;;;3.50;99.90;;;;;;4986978;28;38294;-74
2022/03/25 05:06:45;;;;;;;112.67;54.63;;;3.50;99.90;;;;;;4984957;28;37349;-74
2022/03/25 05:09:12;;;;;;;112.17;55.60;;;3.50;99.90;;;;;;4984954;28;38131;-74
2022/03/25 05:11:38;;;;;;;118.93;56.30;;;3.50;99.90;;;;;;4987932;28;38886;-74
2022/03/25 05:14:04;;;;;;;115.57;58.60;;;3.40;99.90;;;;;;4981637;28;40795;-74
2022/03/25 05:16:33;;;;;;;116.63;58.47;;;3.40;99.90;;;;;;4966900;28;37645;-74
2022/03/25 05:19:02;;;;;;;109.80;53.47;;;3.40;99.90;;;;;;4964432;28;39312;-74
2022/03/25 05:21:31;;;;;;;110.53;55.87;;;3.20;99.90;;;;;;4980087;28;50489;-74
2022/03/25 05:23:57;;;;;;;107.07;53.93;;;3.20;99.90;;;;;;4970671;28;38924;-74
2022/03/25 05:26:23;;;;;;;118.13;57.73;;;3.10;99.90;;;;;;4973669;28;38369;-74
2022/03/25 05:28:49;;;;;;;112.83;55.57;;;3.10;99.90;;;;;;4975336;28;38822;-74
2022/03/25 05:31:18;;;;;;;128.30;60.10;;;3.20;99.90;;;;;;4989526;28;38509;-74
2022/03/25 05:33:47;;;;;;;127.37;67.40;;;3.20;99.90;;;;;;4973128;28;38629;-74
2022/03/25 05:36:13;;;;;;;122.63;62.13;;;3.20;99.90;;;;;;4976069;28;37841;-74
2022/03/25 05:38:39;;;;;;;138.67;67.03;;;3.30;99.90;;;;;;4973420;28;38092;-74
2022/03/25 05:41:07;;;;;;;120.60;59.77;;;3.20;99.90;;;;;;4983339;28;38892;-73
2022/03/25 05:43:33;;;;;;;123.70;59.47;;;3.20;99.90;;;;;;4971041;28;42075;-74
2022/03/25 05:45:59;;;;;;;130.63;61.17;;;3.10;99.90;;;;;;4981290;28;38825;-74
2022/03/25 05:48:25;;;;;;;128.23;63.07;;;3.00;99.90;;;;;;4969328;28;40369;-74
2022/03/25 05:50:51;;;;;;;149.23;67.30;;;3.00;99.90;;;;;;4984604;28;38347;-75
2022/03/25 05:53:17;;;;;;;133.40;65.57;;;2.90;99.90;;;;;;4985848;28;37792;-74
2022/03/25 05:55:43;;;;;;;146.43;67.63;;;3.00;99.90;;;;;;4982501;28;37978;-74
2022/03/25 05:58:10;;;;;;;125.23;62.57;;;3.10;99.90;;;;;;4976552;28;40090;-78
2022/03/25 06:00:37;;;;;;;132.83;67.50;;;3.10;99.90;;;;;;4981053;28;38849;-76
2022/03/25 06:03:05;;;;;;;143.40;70.77;;;3.20;99.90;;;;;;4983401;28;39489;-76
2022/03/25 06:05:32;;;;;;;150.13;72.23;;;3.20;99.90;;;;;;4983010;28;37800;-76
2022/03/25 06:07:58;;;;;;;162.40;74.90;;;3.30;99.90;;;;;;4980549;28;39673;-76
2022/03/25 06:10:25;;;;;;;144.03;71.53;;;3.30;99.90;;;;;;4982068;28;38600;-76
2022/03/25 06:12:51;;;;;;;160.30;75.63;;;3.30;99.90;;;;;;4978494;28;38621;-76
2022/03/25 06:15:17;;;;;;;151.33;71.60;;;3.30;99.90;;;;;;4963480;28;38134;-78
2022/03/25 06:17:47;;;;;;;140.33;68.67;;;3.30;99.90;;;;;;4978643;28;39356;-76
2022/03/25 06:20:18;;;;;;;155.73;75.80;;;3.30;99.90;;;;;;4985399;28;39616;-76
2022/03/25 06:22:44;;;;;;;151.87;75.53;;;3.40;99.90;;;;;;4980990;28;38541;-78
2022/03/25 06:25:12;;;;;;;158.53;78.23;;;3.40;99.90;;;;;;4979649;28;37031;-76
2022/03/25 06:28:06;;;;;;;153.57;75.17;;;3.40;99.90;;;;;;4989339;28;37759;-76
2022/03/25 06:30:36;;;;;;;174.13;79.93;;;3.50;99.90;;;;;;4979145;28;49278;-76
2022/03/25 06:33:07;;;;;;;164.27;76.10;;;3.60;99.90;;;;;;4959941;28;37420;-77
2022/03/25 06:35:33;;;;;;;176.50;84.07;;;3.60;99.90;;;;;;4980814;28;38819;-78
2022/03/25 06:38:00;;;;;;;164.10;79.70;;;3.70;99.90;;;;;;4985137;28;40468;-76
2022/03/25 06:40:26;;;;;;;165.27;81.67;;;3.80;99.90;;;;;;4981606;28;38835;-76
2022/03/25 06:42:57;;;;;;;170.57;79.67;;;3.90;99.90;;;;;;4964809;28;38568;-78
2022/03/25 06:45:25;;;;;;;190.57;89.80;;;3.90;99.90;;;;;;4980813;28;37427;-80
2022/03/25 06:47:51;;;;;;;167.57;82.10;;;4.00;99.90;;;;;;4966105;28;40017;-76
2022/03/25 06:50:19;;;;;;;168.43;83.93;;;4.10;99.90;;;;;;4979933;28;38796;-77
2022/03/25 06:52:46;;;;;;;169.43;83.80;;;4.30;99.90;;;;;;4978650;28;38875;-76
2022/03/25 06:55:20;;;;;;;183.33;88.17;;;4.50;99.90;;;;;;4979824;28;37631;-79
2022/03/25 06:57:50;;;;;;;180.53;88.50;;;4.60;99.90;;;;;;4962843;28;40340;-78
2022/03/25 07:00:19;;;;;;;176.60;87.40;;;4.80;99.90;;;;;;4965920;28;38593;-79
2022/03/25 07:02:46;;;;;;;191.97;93.87;;;5.00;99.90;;;;;;4963837;28;38741;-79
2022/03/25 07:05:13;;;;;;;192.63;93.83;;;5.20;99.90;;;;;;4983336;28;39910;-78
2022/03/25 07:07:40;;;;;;;208.57;99.53;;;5.40;99.90;;;;;;4978956;28;40034;-78
2022/03/25 07:10:09;;;;;;;154.97;82.23;;;5.60;99.90;;;;;;4963434;28;38355;-79
2022/03/25 07:12:40;;;;;;;220.40;104.73;;;6.00;99.90;;;;;;4963770;28;39936;-79
2022/03/25 07:15:07;;;;;;;211.10;102.77;;;6.20;99.90;;;;;;4963633;28;37702;-79
2022/03/25 07:17:35;;;;;;;209.30;104.33;;;6.30;99.90;;;;;;4981447;28;39744;-79
2022/03/25 07:20:02;;;;;;;209.27;100.53;;;6.40;99.90;;;;;;4983751;28;38734;-79
2022/03/25 07:22:28;;;;;;;195.43;102.13;;;6.40;99.90;;;;;;4979748;28;48579;-79
2022/03/25 07:24:54;;;;;;;186.00;97.30;;;6.60;99.90;;;;;;4965001;28;36654;-79
2022/03/25 07:27:21;;;;;;;192.50;97.83;;;6.70;99.90;;;;;;4984363;28;39334;-79
2022/03/25 07:29:49;;;;;;;185.43;97.07;;;6.80;99.90;;;;;;4966032;28;40668;-78
2022/03/25 07:32:16;;;;;;;172.73;95.10;;;6.80;99.90;;;;;;4967083;28;39282;-79
2022/03/25 07:34:42;;;;;;;185.73;96.63;;;7.00;99.90;;;;;;4985211;28;36913;-79
2022/03/25 07:37:09;;;;;;;169.93;94.17;;;7.10;99.90;;;;;;4988941;28;38575;-79
2022/03/25 07:39:35;;;;;;;176.03;96.53;;;7.20;99.90;;;;;;4989954;28;39341;-79
2022/03/25 07:42:01;;;;;;;180.57;95.83;;;7.30;99.90;;;;;;4987522;28;38357;-77
2022/03/25 07:44:27;;;;;;;164.03;93.80;;;7.40;99.90;;;;;;4990178;28;37846;-78
2022/03/25 07:46:54;;;;;;;157.27;90.47;;;7.50;99.90;;;;;;4970420;28;38030;-77
2022/03/25 07:49:20;;;;;;;163.60;92.20;;;7.50;99.90;;;;;;4986988;28;38580;-79
2022/03/25 07:51:46;;;;;;;160.77;91.50;;;7.60;99.90;;;;;;4984208;28;40060;-79
2022/03/25 07:54:12;;;;;;;161.13;94.20;;;7.60;99.90;;;;;;4960832;28;36203;-77
2022/03/25 07:56:38;;;;;;;151.70;90.47;;;7.80;99.90;;;;;;4967305;28;40141;-79
2022/03/25 07:59:04;;;;;;;155.23;88.23;;;7.90;99.90;;;;;;4982029;28;38823;-77
2022/03/25 08:01:31;;;;;;;151.23;90.73;;;7.90;99.90;;;;;;4977262;28;38774;-77
2022/03/25 08:03:57;;;;;;;149.70;87.70;;;8.00;99.90;;;;;;4967112;28;38908;-77
2022/03/25 08:06:23;;;;;;;150.33;87.63;;;8.00;99.90;;;;;;4983512;28;39619;-77
2022/03/25 08:08:49;;;;;;;148.90;88.93;;;8.10;99.90;;;;;;4985564;28;39565;-78
2022/03/25 08:11:20;;;;;;;132.47;80.60;;;8.30;99.90;;;;;;4983563;28;36609;-77
2022/03/25 08:13:47;;;;;;;142.50;82.60;;;8.40;99.90;;;;;;4985536;28;37974;-77
2022/03/25 08:16:16;;;;;;;132.27;81.63;;;8.60;99.90;;;;;;4985995;28;39476;-79
2022/03/25 08:18:43;;;;;;;133.07;78.90;;;8.70;99.90;;;;;;4987032;28;37348;-78
2022/03/25 08:21:11;;;;;;;124.43;76.03;;;8.80;99.90;;;;;;4969097;28;38983;-77
2022/03/25 08:29:07;;;;;;;116.70;74.03;;;9.30;99.90;;;;;;4979254;28;39734;-77
2022/03/25 08:31:34;;;;;;;111.93;70.97;;;9.40;99.90;;;;;;4984747;28;38591;-77
2022/03/25 08:34:03;;;;;;;114.00;72.90;;;9.60;99.90;;;;;;4971212;28;38262;-77
2022/03/25 08:36:30;;;;;;;111.47;71.30;;;9.70;99.90;;;;;;4987735;28;49073;-78
2022/03/25 08:38:56;;;;;;;106.70;69.33;;;9.90;99.90;;;;;;4987638;28;38626;-78
2022/03/25 08:41:22;;;;;;;107.57;67.20;;;10.00;99.90;;;;;;4992549;28;38439;-78
2022/03/25 08:43:48;;;;;;;102.33;66.50;;;10.10;99.90;;;;;;4996124;28;37362;-78
2022/03/25 08:46:14;;;;;;;104.85;66.20;;;10.10;99.90;;;;;;4990803;28;39057;-77
2022/03/25 08:48:40;;;;;;;99.97;65.88;;;10.20;99.90;;;;;;4996860;28;38458;-78
2022/03/25 08:51:07;;;;;;;95.88;63.78;;;10.10;99.90;;;;;;4991971;28;39553;-78
2022/03/25 08:53:34;;;;;;;98.75;63.17;;;10.20;99.90;;;;;;4996857;28;37369;-77
2022/03/25 08:56:00;;;;;;;95.70;62.65;;;10.30;99.90;;;;;;4982172;28;40375;-77
2022/03/25 08:58:26;;;;;;;88.43;58.53;;;10.40;99.90;;;;;;4991946;28;46736;-77
2022/03/25 09:00:52;;;;;;;98.18;60.75;;;10.40;99.90;;;;;;4969496;28;39492;-76
2022/03/25 09:03:18;;;;;;;91.85;59.58;;;10.60;99.90;;;;;;4976054;28;37953;-77
2022/03/25 09:05:44;;;;;;;88.25;57.35;;;10.70;99.90;;;;;;4975386;28;39643;-78
2022/03/25 09:08:11;;;;;;;90.10;57.88;;;10.90;99.90;;;;;;4971532;28;38149;-77
2022/03/25 09:10:37;;;;;;;87.30;56.45;;;11.00;99.90;;;;;;4975741;28;38953;-77
2022/03/25 09:13:05;;;;;;;85.57;56.03;;;11.10;99.90;;;;;;4973423;28;37523;-77
2022/03/25 09:15:31;;;;;;;90.25;58.47;;;11.20;99.90;;;;;;4983385;28;39527;-76
2022/03/25 09:17:57;;;;;;;88.60;55.92;;;11.30;99.90;;;;;;4970433;28;38500;-76
2022/03/25 09:20:24;;;;;;;84.43;54.58;;;11.50;99.90;;;;;;4972080;28;38466;-79
2022/03/25 09:22:53;;;;;;;87.25;54.15;;;11.60;99.90;;;;;;4973430;28;38253;-77
2022/03/25 09:25:20;;;;;;;77.53;53.35;;;11.60;99.90;;;;;;4969405;28;41058;-78
2022/03/25 09:27:46;;;;;;;90.40;57.38;;;11.80;99.90;;;;;;4971033;28;37267;-76
2022/03/25 09:30:13;;;;;;;87.68;55.00;;;11.90;99.90;;;;;;4971214;28;38370;-78
2022/03/25 09:32:39;;;;;;;78.90;51.50;;;12.00;99.90;;;;;;4972238;28;36939;-78
2022/03/25 09:35:08;;;;;;;78.85;52.58;;;12.10;99.90;;;;;;4985734;28;37890;-78
2022/03/25 09:37:40;;;;;;;81.57;52.47;;;12.20;99.90;;;;;;4968383;28;40116;-78
2022/03/25 09:40:10;;;;;;;75.05;50.08;;;12.30;99.90;;;;;;4968174;28;39223;-76
2022/03/25 09:42:37;;;;;;;73.18;50.60;;;12.40;99.90;;;;;;4969481;28;37495;-79
2022/03/25 09:45:04;;;;;;;84.22;51.85;;;12.40;99.90;;;;;;4987797;28;40634;-78
2022/03/25 09:47:31;;;;;;;74.60;51.22;;;12.50;99.90;;;;;;4970892;28;38476;-78
2022/03/25 09:50:01;;;;;;;73.47;48.47;;;12.50;99.90;;;;;;4971376;28;38088;-79
2022/03/25 09:52:33;;;;;;;79.68;50.70;;;12.60;99.90;;;;;;4967348;28;38045;-82
2022/03/25 09:55:00;;;;;;;73.28;48.92;;;12.80;99.90;;;;;;4970586;28;39562;-81
2022/03/25 09:57:28;;;;;;;71.80;46.95;;;13.00;99.90;;;;;;4978863;28;39518;-79
2022/03/25 09:59:55;;;;;;;69.80;44.40;;;13.10;99.90;;;;;;4968863;28;38330;-80
2022/03/25 10:02:21;;;;;;;70.30;42.70;;;13.30;99.90;;;;;;4965599;28;37364;-78
2022/03/25 10:04:49;;;;;;;63.40;42.42;;;13.30;99.90;;;;;;4971861;28;39454;-78
2022/03/25 10:07:31;;;;;;;63.40;42.03;;;13.40;99.90;;;;;;4973920;28;38694;-79
2022/03/25 10:10:18;;;;;;;60.72;42.17;;;13.40;99.90;;;;;;4986326;28;37101;-78
2022/03/25 10:12:58;;;;;;;61.88;42.15;;;13.50;99.90;;;;;;4962365;28;48637;-78
2022/03/25 10:15:26;;;;;;;61.22;41.53;;;13.60;99.90;;;;;;4973680;28;38491;-78
2022/03/25 10:18:11;;;;;;;56.58;39.28;;;13.70;99.90;;;;;;4986680;28;38049;-78
2022/03/25 10:20:42;;;;;;;57.70;39.60;;;13.80;99.90;;;;;;4983837;28;47433;-78
2022/03/25 10:23:19;;;;;;;56.65;38.13;;;14.00;99.90;;;;;;4976241;28;38725;-79
2022/03/25 10:25:55;;;;;;;54.53;35.40;;;14.20;99.90;;;;;;4965581;28;39559;-78
2022/03/25 10:28:29;;;;;;;53.95;36.03;;;14.20;99.90;;;;;;4963890;28;39085;-79
2022/03/25 10:31:00;;;;;;;51.25;34.72;;;14.30;99.90;;;;;;4960648;28;38125;-77
2022/03/25 10:33:42;;;;;;;49.25;33.50;;;14.30;99.90;;;;;;4963302;28;38528;-79
2022/03/25 10:36:12;;;;;;;57.38;37.70;;;14.30;99.90;;;;;;4965166;28;39563;-76
2022/03/25 10:38:55;;;;;;;53.20;35.72;;;14.40;99.90;;;;;;4965959;28;38886;-77
2022/03/25 10:41:22;;;;;;;;;;;14.60;99.90;;;;;;4975077;28;37764;-77
2022/03/25 10:44:03;;;;;;;54.67;37.40;;;14.70;99.90;;;;;;4966548;28;37835;-77
2022/03/25 10:46:49;;;;;;;51.85;35.22;;;14.80;99.90;;;;;;4979495;28;46969;-77
2022/03/25 10:49:17;;;;;;;50.58;33.60;;;14.90;99.90;;;;;;4963253;28;39025;-78
2022/03/25 10:51:51;;;;;;;48.45;33.60;;;15.10;99.90;;;;;;4963758;28;38289;-77
2022/03/25 10:54:25;;;;;;;37.00;24.40;;;15.20;99.90;;;;;;4967314;28;36937;-78
2022/03/25 10:56:54;;;;;;;35.22;24.95;;;15.20;99.90;;;;;;4968830;28;38586;-78
2022/03/25 10:59:25;;;;;;;43.08;26.75;;;15.10;99.90;;;;;;4968945;28;37047;-77
2022/03/25 11:01:54;;;;;;;39.03;26.20;;;15.00;99.90;;;;;;4981470;28;38888;-77
2022/03/25 11:04:20;;;;;;;44.17;27.83;;;15.10;99.90;;;;;;4985013;28;38699;-77
2022/03/25 11:06:47;;;;;;;37.40;26.92;;;15.20;99.90;;;;;;4978992;28;38931;-78
2022/03/25 11:09:14;;;;;;;39.15;26.60;;;15.20;99.90;;;;;;4980399;28;38326;-77
2022/03/25 11:11:48;;;;;;;38.95;26.88;;;15.30;99.90;;;;;;4978616;28;38552;-77
2022/03/25 11:14:15;;;;;;;40.58;26.77;;;15.60;99.90;;;;;;4981972;28;37750;-78
2022/03/25 11:16:59;;;;;;;39.25;26.30;;;15.60;99.90;;;;;;4983891;28;38678;-78
2022/03/25 11:19:27;;;;;;;36.72;23.90;;;15.60;99.90;;;;;;4979979;28;38522;-77
2022/03/25 11:22:03;;;;;;;36.53;24.77;;;15.60;99.90;;;;;;4981932;28;38333;-78
2022/03/25 11:24:31;;;;;;;34.97;24.33;;;15.80;99.90;;;;;;4980996;28;48270;-78
2022/03/25 11:27:02;;;;;;;45.58;23.67;;;15.90;99.90;;;;;;4985467;28;38937;-78
2022/03/25 11:29:33;;;;;;;36.03;24.10;;;15.80;99.90;;;;;;4981336;28;46302;-78
2022/03/25 11:32:03;;;;;;;35.58;22.73;;;15.90;99.90;;;;;;4967446;28;38356;-78
2022/03/25 11:34:29;;;;;;;37.13;24.02;;;16.00;99.90;;;;;;4981080;28;48909;-79
2022/03/25 11:37:16;;;;;;;34.65;24.00;;;16.10;99.90;;;;;;4986331;28;37474;-77
2022/03/25 11:39:42;;;;;;;35.47;22.77;;;16.10;99.90;;;;;;4962095;28;48518;-77
2022/03/25 11:42:41;;;;;;;34.83;23.08;;;16.10;99.90;;;;;;4978752;28;37783;-78
2022/03/25 11:45:35;;;;;;;37.40;24.85;;;16.40;99.90;;;;;;4962468;28;36324;-77
2022/03/25 11:48:04;;;;;;;35.53;23.25;;;16.40;99.90;;;;;;4977955;28;41743;-78
2022/03/25 11:50:34;;;;;;;34.78;23.30;;;16.50;99.90;;;;;;4982282;28;38845;-77
2022/03/25 11:53:12;;;;;;;37.60;24.67;;;16.50;99.90;;;;;;4967910;28;38941;-77
2022/03/25 11:55:59;;;;;;;40.75;25.50;;;16.60;99.90;;;;;;4982170;28;47626;-76
2022/03/25 11:58:26;;;;;;;40.45;25.13;;;16.60;99.90;;;;;;4978187;28;38760;-77
2022/03/25 12:01:05;;;;;;;34.80;23.98;;;16.50;99.90;;;;;;4977400;28;38622;-77
2022/03/25 12:03:52;;;;;;;34.63;22.88;;;16.30;99.90;;;;;;4975859;28;47644;-77
2022/03/25 12:06:26;;;;;;;35.65;23.60;;;16.40;99.90;;;;;;4981936;28;37622;-77
2022/03/25 12:09:08;;;;;;;39.33;28.13;;;16.70;99.90;;;;;;4978358;28;38901;-77
2022/03/25 12:11:54;;;;;;;;;;;16.80;99.90;;;;;;4962974;28;47677;-76
2022/03/25 12:14:33;;;;;;;44.30;27.33;;;17.00;99.90;;;;;;4966702;28;39717;-77
2022/03/25 12:17:02;;;;;;;32.78;22.83;;;16.90;99.90;;;;;;4978810;28;36104;-76
2022/03/25 12:19:28;;;;;;;35.95;21.80;;;16.70;99.90;;;;;;4979252;28;49865;-76
2022/03/25 12:21:59;;;;;;;36.80;24.60;;;16.90;99.90;;;;;;4978986;28;38133;-77
2022/03/25 12:24:27;;;;;;;34.10;23.42;;;17.00;99.90;;;;;;4972131;28;37133;-77
2022/03/25 12:27:05;;;;;;;30.75;22.02;;;17.00;99.90;;;;;;4975987;28;36929;-79
2022/03/25 12:29:34;;;;;;;30.75;20.90;;;17.00;99.30;;;;;;4975353;28;48837;-77
2022/03/25 12:32:08;;;;;;;38.97;25.20;;;16.90;99.30;;;;;;4978931;28;38285;-77
2022/03/25 12:34:53;;;;;;;37.90;24.10;;;16.70;99.90;;;;;;4983964;28;47378;-77
2022/03/25 12:37:43;;;;;;;33.08;22.67;;;17.00;99.90;;;;;;4966785;28;36171;-77
2022/03/25 12:40:17;;;;;;;33.03;21.42;;;17.20;99.90;;;;;;4979000;28;40216;-77
2022/03/25 12:42:57;;;;;;;30.63;18.10;;;17.40;99.70;;;;;;4977328;28;39193;-78
2022/03/25 12:45:37;;;;;;;33.10;17.58;;;17.30;97.50;;;;;;4981281;28;38028;-78